Time;durP1;ratioP1;P1;durP2;ratioP2;P2;SDS_P1;SDS_P2;PMS_P1;PMS_P2;Temp;Humidity;BMP_temperature;BMP_pressure;BME280_temperature;BME280_humidity;BME280_pressure;Samples;Min_cycle;Max_cycle;Signal;HPM_P1;HPM_P2
2022/12/03 00:02:38;;;;;;;38.80;19.00;;;;;;;-2.45;80.97;100903.45;208266;1288;140666;-65
2022/12/03 00:07:42;;;;;;;32.50;15.60;;;;;;;-2.46;81.19;100904.80;210319;1301;139348;-63
2022/12/03 00:12:46;;;;;;;42.30;17.90;;;;;;;-2.48;81.12;100903.92;210246;1291;141069;-63
2022/12/03 00:17:49;;;;;;;46.00;22.80;;;;;;;-2.50;81.24;100907.34;210306;1289;140774;-63
2022/12/03 00:22:53;;;;;;;48.40;19.60;;;;;;;-2.55;81.12;100909.20;210350;1294;151992;-61
2022/12/03 00:27:57;;;;;;;43.90;19.20;;;;;;;-2.57;81.10;100906.75;210062;1295;140339;-64
2022/12/03 00:33:01;;;;;;;47.40;21.00;;;;;;;-2.54;81.34;100903.83;210189;1288;150065;-65
2022/12/03 00:38:04;;;;;;;36.20;18.40;;;;;;;-2.51;81.53;100900.67;210475;1301;142258;-64
2022/12/03 00:43:08;;;;;;;49.90;18.80;;;;;;;-2.49;81.36;100897.52;210206;1293;140551;-64
2022/12/03 00:48:11;;;;;;;44.20;20.70;;;;;;;-2.43;81.18;100897.88;210192;1294;142367;-65
2022/12/03 00:53:17;;;;;;;56.90;21.90;;;;;;;-2.41;81.32;100896.18;210189;1287;141731;-65
2022/12/03 00:58:23;;;;;;;41.00;21.70;;;;;;;-2.49;81.44;100899.77;210173;1294;141587;-64
2022/12/03 01:03:27;;;;;;;52.10;24.10;;;;;;;-2.50;81.41;100892.04;210126;1294;140727;-63
2022/12/03 01:08:31;;;;;;;44.80;19.10;;;;;;;-2.43;81.48;100890.98;210287;1293;140463;-64
2022/12/03 01:13:36;;;;;;;49.20;21.50;;;;;;;-2.45;81.62;100888.83;210233;1294;143964;-62
2022/12/03 01:18:40;;;;;;;48.30;19.70;;;;;;;-2.50;81.53;100890.11;210449;1297;142490;-62
2022/12/03 01:23:45;;;;;;;46.90;22.70;;;;;;;-2.48;81.58;100886.61;210286;1286;139784;-66
2022/12/03 01:28:49;;;;;;;37.70;17.80;;;;;;;-2.46;81.82;100887.73;210163;1294;141653;-64
2022/12/03 01:33:54;;;;;;;43.00;18.60;;;;;;;-2.47;81.87;100883.44;208059;1286;140815;-62
2022/12/03 01:39:00;;;;;;;42.70;21.00;;;;;;;-2.42;81.85;100884.06;210484;1296;141127;-61
2022/12/03 01:44:14;;;;;;;48.80;22.30;;;;;;;-2.38;81.88;100889.52;210125;1295;140958;-66
2022/12/03 01:49:24;;;;;;;46.40;17.90;;;;;;;-2.39;81.95;100888.54;209892;1288;140800;-65
2022/12/03 01:54:40;;;;;;;39.90;19.30;;;;;;;-2.33;81.83;100884.29;210206;1294;142245;-64
2022/12/03 01:59:46;;;;;;;42.10;20.30;;;;;;;-2.31;81.72;100876.25;210279;1294;140028;-64
2022/12/03 02:04:53;;;;;;;30.80;14.10;;;;;;;-2.31;81.98;100872.55;209332;1282;140396;-66
2022/12/03 02:10:01;;;;;;;40.10;17.50;;;;;;;-2.27;81.78;100873.82;208607;1294;141101;-65
2022/12/03 02:15:06;;;;;;;45.00;20.70;;;;;;;-2.24;81.70;100874.99;207759;1278;140700;-65
2022/12/03 02:20:11;;;;;;;41.10;20.20;;;;;;;-2.27;82.07;100870.86;210300;1295;141467;-66
2022/12/03 02:25:26;;;;;;;44.10;19.30;;;;;;;-2.27;81.92;100869.14;208206;1294;141043;-68
2022/12/03 02:30:32;;;;;;;43.60;21.20;;;;;;;-2.24;81.86;100868.70;210346;1295;140968;-69
2022/12/03 02:35:37;;;;;;;42.50;19.10;;;;;;;-2.22;82.13;100874.68;210240;1296;141268;-69
2022/12/03 02:40:44;;;;;;;38.80;18.60;;;;;;;-2.24;81.90;100868.88;210207;1293;140579;-66
2022/12/03 02:45:55;;;;;;;47.50;22.00;;;;;;;-2.19;81.78;100867.95;210188;1294;141248;-65
2022/12/03 02:51:04;;;;;;;47.80;21.60;;;;;;;-2.16;82.02;100863.36;210378;1289;140696;-65
2022/12/03 02:56:12;;;;;;;59.60;25.40;;;;;;;-2.16;82.08;100863.36;210182;1295;139987;-65
2022/12/03 03:01:17;;;;;;;59.10;20.30;;;;;;;-2.17;81.82;100858.56;210185;1302;244174;-65
2022/12/03 03:06:23;;;;;;;48.40;22.20;;;;;;;-2.15;81.77;100857.50;210106;1294;140658;-64
2022/12/03 03:11:28;;;;;;;51.30;22.20;;;;;;;-2.12;81.80;100857.21;209130;1291;140070;-64
2022/12/03 03:16:33;;;;;;;56.90;23.80;;;;;;;-2.13;81.98;100854.23;210116;1294;140112;-64
2022/12/03 03:21:38;;;;;;;44.90;20.70;;;;;;;-2.14;82.03;100854.30;210151;1296;139851;-65
2022/12/03 03:26:43;;;;;;;54.90;24.70;;;;;;;-2.11;81.71;100857.19;209253;1298;140572;-65
2022/12/03 03:31:47;;;;;;;52.20;22.60;;;;;;;-2.11;81.97;100855.98;210255;1294;141924;-65
2022/12/03 03:36:52;;;;;;;48.30;21.90;;;;;;;-2.10;82.07;100853.79;210066;1295;140533;-65
2022/12/03 03:41:58;;;;;;;47.10;23.50;;;;;;;-2.04;82.02;100852.38;209815;1294;140928;-64
2022/12/03 03:47:03;;;;;;;60.70;24.30;;;;;;;-2.00;82.08;100850.54;210201;1288;140238;-67
2022/12/03 03:52:10;;;;;;;59.10;22.90;;;;;;;-1.97;82.27;100847.63;210135;1294;140561;-67
2022/12/03 03:57:15;;;;;;;47.90;21.10;;;;;;;-1.92;81.78;100838.89;208409;1287;140880;-65
2022/12/03 04:02:24;;;;;;;50.00;20.40;;;;;;;-1.93;81.94;100835.13;210269;1294;141078;-66
2022/12/03 04:07:29;;;;;;;48.70;21.30;;;;;;;-1.93;82.18;100832.73;210360;1294;140405;-66
2022/12/03 04:12:55;;;;;;;52.30;24.00;;;;;;;-1.89;81.95;100832.20;209057;1294;140808;-66
2022/12/03 04:23:25;;;;;;;53.50;24.90;;;;;;;-1.93;81.91;100831.45;210913;1294;202579;-65
2022/12/03 04:28:50;;;;;;;45.80;22.50;;;;;;;-1.92;82.04;100829.17;210268;1294;140117;-68
2022/12/03 04:39:18;;;;;;;47.40;24.00;;;;;;;-1.88;82.07;100827.42;210541;1301;142892;-67
2022/12/03 04:44:34;;;;;;;50.60;25.90;;;;;;;-1.89;82.00;100829.02;210311;1288;247102;-64
2022/12/03 04:49:43;;;;;;;58.80;23.90;;;;;;;-1.88;82.09;100828.25;210391;1294;141626;-66
2022/12/03 04:54:48;;;;;;;58.20;24.90;;;;;;;-1.81;82.01;100822.73;210068;1295;143192;-68
2022/12/03 04:59:53;;;;;;;57.50;24.10;;;;;;;-1.78;81.94;100819.42;210161;1294;140820;-65
2022/12/03 05:04:57;;;;;;;50.70;23.90;;;;;;;-1.77;82.05;100813.92;210322;1296;140711;-64
2022/12/03 05:10:03;;;;;;;55.00;24.80;;;;;;;-1.74;81.84;100809.83;210272;1294;142072;-68
2022/12/03 05:15:07;;;;;;;62.70;25.50;;;;;;;-1.73;81.74;100811.10;210388;1287;140540;-68
2022/12/03 05:25:37;;;;;;;50.40;23.30;;;;;;;-1.77;81.92;100808.35;210380;1294;141574;-68
2022/12/03 05:30:42;;;;;;;56.80;25.10;;;;;;;-1.76;81.75;100807.00;209964;1294;140085;-67
2022/12/03 05:40:41;;;;;;;54.70;23.20;;;;;;;-1.74;82.16;100817.13;209202;1340;656489;-65
2022/12/03 05:45:46;;;;;;;56.50;26.40;;;;;;;-1.65;82.22;100814.78;208342;1306;140022;-64
2022/12/03 05:50:51;;;;;;;50.50;24.30;;;;;;;-1.58;81.98;100816.99;207971;1311;425050;-65
2022/12/03 05:55:56;;;;;;;56.60;26.40;;;;;;;-1.56;81.91;100815.64;208389;1303;139840;-65
2022/12/03 06:01:02;;;;;;;55.10;26.40;;;;;;;-1.56;82.00;100811.28;207509;1306;140025;-64
2022/12/03 06:06:06;;;;;;;52.40;21.40;;;;;;;-1.53;82.00;100811.75;208571;1303;141436;-65
2022/12/03 06:11:12;;;;;;;47.00;22.70;;;;;;;-1.52;81.58;100813.30;208485;1298;140995;-66
2022/12/03 06:16:17;;;;;;;46.00;22.90;;;;;;;-1.52;81.83;100815.14;208281;1303;141452;-65
2022/12/03 06:21:23;;;;;;;47.40;23.80;;;;;;;-1.53;81.82;100817.44;210344;1293;140120;-65
2022/12/03 06:26:31;;;;;;;48.20;23.20;;;;;;;-1.52;82.00;100816.55;210021;1293;139089;-64
2022/12/03 06:31:36;;;;;;;63.90;25.90;;;;;;;-1.50;81.70;100820.28;210165;1293;141365;-63
2022/12/03 06:36:40;;;;;;;49.40;25.20;;;;;;;-1.49;81.96;100818.72;210253;1287;139826;-64
2022/12/03 06:41:46;;;;;;;55.10;28.30;;;;;;;-1.51;82.07;100820.20;210156;1293;139508;-65
2022/12/03 06:46:50;;;;;;;46.60;23.10;;;;;;;-1.50;81.89;100823.48;210192;1294;140947;-65
2022/12/03 06:51:55;;;;;;;65.90;32.80;;;;;;;-1.47;81.91;100822.98;210185;1284;141353;-64
2022/12/03 06:56:59;;;;;;;58.50;27.70;;;;;;;-1.44;82.11;100820.70;210145;1294;139433;-65
2022/12/03 07:02:04;;;;;;;64.50;29.20;;;;;;;-1.47;82.06;100819.86;210140;1276;140129;-66
2022/12/03 07:07:10;;;;;;;50.60;24.10;;;;;;;-1.48;81.80;100817.38;210031;1297;140271;-65
2022/12/03 07:12:15;;;;;;;60.80;29.50;;;;;;;-1.43;81.81;100815.23;210165;1293;141055;-66
2022/12/03 07:17:20;;;;;;;57.40;28.30;;;;;;;-1.42;82.17;100811.42;210164;1290;141381;-65
2022/12/03 07:22:26;;;;;;;52.40;26.30;;;;;;;-1.41;81.99;100809.24;209598;1297;141140;-67
2022/12/03 07:27:31;;;;;;;48.30;24.60;;;;;;;-1.37;82.05;100801.11;210085;1294;140750;-63
2022/12/03 07:32:35;;;;;;;61.10;28.10;;;;;;;-1.31;81.97;100804.26;210239;1294;139763;-64
2022/12/03 07:37:38;;;;;;;60.10;28.40;;;;;;;-1.28;81.98;100798.54;210321;1295;139847;-63
2022/12/03 07:42:42;;;;;;;54.30;25.20;;;;;;;-1.18;82.26;100800.52;210090;1294;139471;-63
2022/12/03 07:47:47;;;;;;;48.70;23.70;;;;;;;-1.03;82.03;100796.88;210101;1287;140383;-64
2022/12/03 07:52:50;;;;;;;53.30;27.40;;;;;;;-0.88;82.05;100795.73;209618;1294;141374;-66
2022/12/03 07:57:53;;;;;;;55.80;28.80;;;;;;;-0.73;82.11;100792.32;209432;1301;140529;-64
2022/12/03 08:02:58;;;;;;;64.70;26.90;;;;;;;-0.59;81.65;100788.80;210335;1290;140312;-63
2022/12/03 08:08:03;;;;;;;57.20;27.40;;;;;;;-0.45;81.55;100795.76;209533;1294;140148;-64
2022/12/03 08:13:14;;;;;;;50.40;27.30;;;;;;;-0.42;81.32;100801.96;209477;1292;139493;-66
2022/12/03 08:18:20;;;;;;;60.20;30.10;;;;;;;-0.33;81.52;100804.48;210245;1293;218651;-64
2022/12/03 08:23:25;;;;;;;53.30;29.20;;;;;;;-0.20;81.37;100806.95;209418;1296;140215;-64
2022/12/03 08:28:30;;;;;;;59.80;30.70;;;;;;;-0.08;80.92;100802.52;210073;1297;139556;-63
2022/12/03 08:33:35;;;;;;;58.80;27.00;;;;;;;-0.01;81.16;100800.41;210024;1294;139835;-64
2022/12/03 08:38:43;;;;;;;57.00;27.30;;;;;;;0.17;80.67;100804.23;209542;1295;140538;-64
2022/12/03 08:43:57;;;;;;;56.00;29.00;;;;;;;0.33;80.71;100808.11;210333;1295;140327;-65
2022/12/03 08:49:03;;;;;;;60.20;28.10;;;;;;;0.44;80.61;100803.67;210157;1288;150741;-63
2022/12/03 08:54:20;;;;;;;56.70;28.20;;;;;;;0.54;80.25;100798.14;210238;1302;141988;-64
2022/12/03 08:59:31;;;;;;;56.60;28.10;;;;;;;0.59;80.57;100805.83;209999;1297;243723;-65
2022/12/03 09:04:45;;;;;;;82.20;29.80;;;;;;;0.68;80.33;100810.20;210304;1288;139564;-63
2022/12/03 09:09:49;;;;;;;53.80;27.60;;;;;;;0.73;79.52;100813.10;210190;1294;141027;-67
2022/12/03 09:14:54;;;;;;;54.10;28.60;;;;;;;0.79;79.53;100808.49;210368;1302;139303;-66
2022/12/03 09:19:58;;;;;;;58.40;33.60;;;;;;;0.85;79.75;100796.73;210179;1288;140312;-68
2022/12/03 09:25:02;;;;;;;44.50;23.40;;;;;;;0.87;79.32;100789.55;210091;1294;139227;-69
2022/12/03 09:30:07;;;;;;;59.90;30.20;;;;;;;0.94;79.43;100779.27;210212;1287;140561;-68
2022/12/03 09:35:11;;;;;;;54.80;27.40;;;;;;;1.14;79.65;100766.46;210285;1294;139958;-68
2022/12/03 09:40:15;;;;;;;47.30;24.00;;;;;;;1.31;79.45;100768.45;207077;1288;139729;-66
2022/12/03 09:45:19;;;;;;;58.90;28.20;;;;;;;1.39;79.15;100772.91;208595;1288;140002;-69
2022/12/03 09:50:25;;;;;;;143.70;111.70;;;;;;;1.53;79.16;100765.45;210122;1297;139613;-68
2022/12/03 09:55:30;;;;;;;53.50;28.40;;;;;;;1.64;79.08;100763.44;209943;1296;140312;-69
2022/12/03 10:00:35;;;;;;;51.80;27.50;;;;;;;1.67;78.89;100766.42;209953;1280;139943;-69
2022/12/03 10:05:40;;;;;;;55.90;26.10;;;;;;;1.70;78.83;100754.45;210061;1294;140185;-68
2022/12/03 10:10:55;;;;;;;52.20;23.60;;;;;;;1.75;78.53;100753.80;210291;1296;141050;-72
2022/12/03 10:16:01;;;;;;;60.50;31.40;;;;;;;1.62;77.68;100754.54;209934;1297;140135;-68
2022/12/03 10:21:24;;;;;;;45.70;23.90;;;;;;;1.59;78.31;100760.04;206957;1294;140294;-68
2022/12/03 10:26:39;;;;;;;66.80;30.80;;;;;;;1.62;77.91;100757.14;207547;1296;139358;-65
2022/12/03 10:31:54;;;;;;;51.20;26.90;;;;;;;1.72;78.26;100753.68;209730;1297;141190;-66
2022/12/03 10:37:14;;;;;;;35.80;20.80;;;;;;;1.86;78.24;100754.01;210221;1294;139820;-66
2022/12/03 10:42:20;;;;;;;53.80;30.00;;;;;;;1.94;78.22;100751.63;210109;1294;140276;-65
2022/12/03 10:47:26;;;;;;;37.00;20.40;;;;;;;2.17;78.40;100743.06;210069;1297;141943;-66
2022/12/03 10:52:33;;;;;;;47.50;26.50;;;;;;;2.22;77.71;100750.89;210190;1289;140997;-66
2022/12/03 10:57:38;;;;;;;49.80;22.70;;;;;;;2.04;76.98;100754.36;209979;1296;141143;-66
2022/12/03 11:02:49;;;;;;;40.90;22.90;;;;;;;1.83;77.02;100752.83;210443;1294;139817;-66
2022/12/03 11:08:01;;;;;;;43.30;21.00;;;;;;;1.64;77.52;100745.20;210184;1298;139980;-66
2022/12/03 11:13:32;;;;;;;30.80;18.90;;;;;;;1.58;77.13;100745.94;210102;1293;140738;-66
2022/12/03 11:18:38;;;;;;;55.20;25.70;;;;;;;1.50;77.43;100748.77;210003;1295;139959;-66
2022/12/03 11:23:42;;;;;;;53.30;27.30;;;;;;;1.28;77.21;100739.27;208881;1293;140693;-62
2022/12/03 11:28:53;;;;;;;51.00;25.60;;;;;;;1.23;78.07;100735.45;210121;1301;140050;-64
2022/12/03 11:34:21;;;;;;;44.00;23.30;;;;;;;1.13;77.32;100737.14;210023;1296;222121;-66
2022/12/03 11:39:50;;;;;;;139.00;39.20;;;;;;;1.05;77.97;100737.80;210127;1294;243682;-67
2022/12/03 11:45:07;;;;;;;73.60;32.00;;;;;;;1.01;77.87;100737.66;210168;1296;140790;-66
2022/12/03 11:50:42;;;;;;;75.60;29.00;;;;;;;0.77;77.56;100724.71;210177;1302;140535;-66
2022/12/03 11:55:58;;;;;;;70.20;31.80;;;;;;;0.60;78.05;100724.44;210251;1296;141195;-66
2022/12/03 12:01:34;;;;;;;59.20;31.50;;;;;;;0.53;78.23;100717.73;210215;1297;139905;-66
2022/12/03 12:06:44;;;;;;;56.00;24.80;;;;;;;0.57;78.81;100717.05;210183;1294;139824;-67
2022/12/03 12:12:36;;;;;;;60.40;24.80;;;;;;;0.62;78.61;100717.79;210265;1297;139501;-68
2022/12/03 12:17:41;;;;;;;49.10;26.40;;;;;;;0.73;78.82;100719.52;210201;1296;245994;-68
2022/12/03 12:22:47;;;;;;;73.80;29.20;;;;;;;0.76;78.87;100723.92;210125;1297;139647;-68
2022/12/03 12:27:53;;;;;;;54.60;24.70;;;;;;;0.75;78.91;100725.64;210160;1297;141068;-68
2022/12/03 12:33:24;;;;;;;50.20;23.60;;;;;;;0.61;78.81;100724.48;210363;1297;140977;-68
2022/12/03 12:38:42;;;;;;;52.00;27.80;;;;;;;0.54;78.87;100717.27;210213;1294;220183;-69
2022/12/03 12:43:47;;;;;;;59.80;32.50;;;;;;;0.43;78.84;100715.75;210092;1295;143667;-70
2022/12/03 12:48:53;;;;;;;64.50;30.80;;;;;;;0.31;79.07;100719.41;210123;1285;140719;-68
2022/12/03 12:54:10;;;;;;;52.40;23.80;;;;;;;0.23;79.15;100719.32;210114;1289;139335;-67
2022/12/03 12:59:19;;;;;;;55.70;28.80;;;;;;;0.17;79.31;100716.98;210204;1295;140999;-68
2022/12/03 13:04:29;;;;;;;61.10;31.80;;;;;;;0.10;79.63;100717.79;210080;1302;140329;-68
2022/12/03 13:09:54;;;;;;;59.70;30.80;;;;;;;0.04;79.83;100714.39;209093;1306;245434;-68
2022/12/03 13:15:00;;;;;;;72.80;36.80;;;;;;;-0.01;79.88;100719.73;209322;1294;141288;-66
2022/12/03 13:20:22;;;;;;;65.20;28.80;;;;;;;-0.04;80.22;100721.71;208968;1306;244677;-68
2022/12/03 13:25:44;;;;;;;50.30;23.60;;;;;;;0.03;80.19;100721.91;209130;1303;219751;-67
2022/12/03 13:32:02;;;;;;;49.80;24.90;;;;;;;-0.01;80.37;100729.66;208990;1309;140277;-67
2022/12/03 13:37:24;;;;;;;69.80;34.60;;;;;;;-0.07;80.34;100724.48;208206;1305;247357;-65
2022/12/03 13:42:40;;;;;;;75.70;32.40;;;;;;;-0.11;80.74;100723.44;210317;1302;140925;-68
2022/12/03 13:47:49;;;;;;;65.20;31.10;;;;;;;-0.05;80.85;100727.98;210180;1297;140015;-67
2022/12/03 13:52:53;;;;;;;52.30;26.70;;;;;;;-0.11;80.82;100722.94;208278;1294;139990;-68
2022/12/03 13:58:11;;;;;;;61.20;31.30;;;;;;;-0.15;80.81;100726.12;210202;1297;140514;-65
2022/12/03 14:03:16;;;;;;;52.40;28.10;;;;;;;-0.20;81.21;100729.55;208187;1296;231283;-68
2022/12/03 14:08:21;;;;;;;68.40;32.30;;;;;;;-0.19;81.35;100730.09;210046;1297;139130;-68
2022/12/03 14:13:26;;;;;;;60.50;29.90;;;;;;;-0.08;81.22;100725.08;210069;1292;140454;-66
2022/12/03 14:18:53;;;;;;;73.60;37.20;;;;;;;-0.05;81.68;100721.66;209651;1293;141028;-64
2022/12/03 14:23:58;;;;;;;77.50;31.70;;;;;;;-0.06;81.34;100719.13;208142;1296;140016;-66
2022/12/03 14:29:03;;;;;;;65.10;30.50;;;;;;;-0.07;81.40;100708.73;210192;1289;140335;-65
2022/12/03 14:34:12;;;;;;;64.10;34.00;;;;;;;-0.15;81.58;100711.35;210226;1295;140926;-64
2022/12/03 14:39:18;;;;;;;67.10;31.40;;;;;;;-0.19;81.78;100715.06;209846;1295;139520;-63
2022/12/03 14:44:27;;;;;;;68.90;30.70;;;;;;;-0.10;81.91;100704.50;210256;1281;141740;-66
2022/12/03 14:49:33;;;;;;;74.20;35.10;;;;;;;-0.01;82.33;100688.58;209997;1297;139850;-66
2022/12/03 14:54:40;;;;;;;62.40;28.20;;;;;;;0.10;82.46;100689.73;210086;1286;141417;-64
2022/12/03 14:59:45;;;;;;;67.80;34.40;;;;;;;0.17;82.28;100689.02;210020;1289;141235;-65
2022/12/03 15:04:50;;;;;;;71.20;32.10;;;;;;;0.21;82.11;100688.64;210085;1300;140202;-68
2022/12/03 15:09:54;;;;;;;65.30;33.70;;;;;;;0.27;82.52;100688.80;210042;1295;139732;-68
2022/12/03 15:14:59;;;;;;;70.40;31.70;;;;;;;0.32;82.33;100688.48;210177;1287;139659;-67
2022/12/03 15:20:04;;;;;;;79.00;37.80;;;;;;;0.43;82.26;100684.31;209868;1294;141072;-69
2022/12/03 15:25:12;;;;;;;73.90;36.90;;;;;;;0.44;82.27;100702.85;210061;1301;141375;-63
2022/12/03 15:30:16;;;;;;;41.30;18.30;;;;;;;0.40;82.21;100717.09;210135;1302;139567;-66
2022/12/03 15:35:21;;;;;;;72.10;32.50;;;;;;;0.34;82.13;100710.39;210008;1293;142297;-65
2022/12/03 15:40:43;;;;;;;69.60;33.60;;;;;;;0.41;82.19;100700.68;210062;1287;244714;-68
2022/12/03 15:45:48;;;;;;;75.70;32.60;;;;;;;0.41;82.10;100724.65;210046;1302;140229;-71
2022/12/03 15:50:52;;;;;;;73.80;28.80;;;;;;;0.34;82.09;100728.62;210018;1292;140801;-69
2022/12/03 15:55:56;;;;;;;108.60;42.40;;;;;;;0.30;81.83;100722.69;209990;1294;140955;-71
2022/12/03 16:01:00;;;;;;;79.10;37.00;;;;;;;0.23;82.13;100720.80;210188;1301;140944;-69
2022/12/03 16:06:05;;;;;;;63.00;26.40;;;;;;;0.24;82.37;100722.77;210213;1290;139568;-68
2022/12/03 16:11:41;;;;;;;81.70;37.20;;;;;;;0.18;82.44;100734.19;210053;1295;236586;-70
2022/12/03 16:16:49;;;;;;;84.70;35.80;;;;;;;0.08;82.56;100729.19;207857;1286;140160;-70
2022/12/03 16:22:14;;;;;;;76.90;32.50;;;;;;;0.09;82.65;100731.67;208182;1299;140654;-68
2022/12/03 16:27:22;;;;;;;79.40;30.80;;;;;;;0.03;82.86;100726.48;210374;1295;139812;-69
2022/12/03 16:32:50;;;;;;;71.90;30.10;;;;;;;0.05;82.98;100715.80;208518;1303;220634;-68
2022/12/03 16:38:08;;;;;;;96.00;40.30;;;;;;;0.03;82.93;100708.80;207310;1290;141695;-67
2022/12/03 16:43:27;;;;;;;67.40;30.90;;;;;;;-0.00;83.12;100702.35;208893;1305;141594;-68
2022/12/03 16:48:47;;;;;;;77.60;33.70;;;;;;;-0.03;83.52;100705.05;208781;1301;224599;-69
2022/12/03 16:53:53;;;;;;;80.50;32.90;;;;;;;-0.07;83.94;100705.05;205902;1306;139614;-68
2022/12/03 16:58:58;;;;;;;68.70;30.40;;;;;;;-0.04;83.55;100703.09;206069;1300;139873;-69
2022/12/03 17:04:02;;;;;;;70.10;32.50;;;;;;;-0.04;83.63;100708.94;209262;1299;140073;-69
2022/12/03 17:09:07;;;;;;;71.50;32.50;;;;;;;0.02;83.85;100705.45;209442;1305;141263;-70
2022/12/03 17:14:11;;;;;;;74.70;28.40;;;;;;;0.02;83.95;100703.88;209235;1306;140627;-71
2022/12/03 17:19:15;;;;;;;179.90;46.60;;;;;;;0.07;83.91;100704.98;209179;1305;139809;-70
2022/12/03 17:24:20;;;;;;;81.10;30.10;;;;;;;0.07;84.03;100706.60;209222;1305;140156;-71
2022/12/03 17:29:26;;;;;;;115.70;37.80;;;;;;;0.03;84.11;100707.79;209132;1300;140844;-70
2022/12/03 17:34:30;;;;;;;91.20;39.10;;;;;;;0.00;84.22;100706.86;209287;1300;140021;-71
2022/12/03 17:39:35;;;;;;;113.40;33.90;;;;;;;-0.02;84.49;100705.65;210197;1302;140800;-72
2022/12/03 17:44:39;;;;;;;83.30;32.70;;;;;;;0.05;84.58;100695.04;210291;1293;139742;-71
2022/12/03 17:49:46;;;;;;;86.00;32.20;;;;;;;0.10;84.85;100691.10;210134;1287;140979;-69
2022/12/03 17:54:53;;;;;;;75.10;33.00;;;;;;;0.12;84.58;100695.42;209526;1286;576379;-69
2022/12/03 18:00:15;;;;;;;64.70;27.40;;;;;;;0.08;84.53;100690.42;209786;1297;141730;-67
2022/12/03 18:05:21;;;;;;;72.10;26.70;;;;;;;0.06;84.80;100696.52;207074;1286;139721;-68
2022/12/03 18:10:26;;;;;;;80.10;28.20;;;;;;;-0.02;85.10;100693.40;209958;1295;142239;-69
2022/12/03 18:15:31;;;;;;;86.60;32.60;;;;;;;-0.04;85.39;100691.20;208765;1293;140172;-69
2022/12/03 18:20:36;;;;;;;84.90;34.00;;;;;;;-0.02;85.46;100689.36;209342;1288;140137;-67
2022/12/03 18:25:41;;;;;;;80.40;34.10;;;;;;;0.02;85.36;100690.65;209984;1299;139882;-68
2022/12/03 18:30:46;;;;;;;69.40;30.30;;;;;;;0.00;85.72;100689.52;208354;1287;141019;-66
2022/12/03 18:35:57;;;;;;;77.50;29.70;;;;;;;-0.01;85.51;100680.02;209100;1297;140371;-70
2022/12/03 18:41:02;;;;;;;66.60;26.90;;;;;;;0.04;85.60;100680.94;210034;1295;140872;-68
2022/12/03 18:46:13;;;;;;;66.50;26.90;;;;;;;0.07;85.84;100681.63;210132;1296;139799;-68
2022/12/03 18:51:38;;;;;;;62.80;26.30;;;;;;;0.08;85.64;100682.03;210201;1281;141337;-67
2022/12/03 18:56:43;;;;;;;59.30;23.30;;;;;;;0.10;86.08;100679.90;210193;1302;140140;-70
2022/12/03 19:01:48;;;;;;;70.10;27.10;;;;;;;0.15;85.91;100682.40;210160;1296;141465;-68
2022/12/03 19:06:56;;;;;;;68.50;25.90;;;;;;;0.17;85.79;100684.48;209883;1298;140389;-65
2022/12/03 19:12:01;;;;;;;73.00;27.00;;;;;;;0.16;85.68;100681.42;209969;1295;141094;-67
2022/12/03 19:17:08;;;;;;;69.70;26.00;;;;;;;0.22;85.87;100681.90;209884;1299;140888;-67
2022/12/03 19:22:13;;;;;;;60.70;26.80;;;;;;;0.22;86.06;100681.21;209982;1299;160614;-66
2022/12/03 19:27:18;;;;;;;73.30;28.40;;;;;;;0.27;85.87;100676.17;210112;1295;141826;-68
2022/12/03 19:32:23;;;;;;;68.60;25.70;;;;;;;0.28;86.24;100683.89;209979;1295;141609;-67
2022/12/03 19:37:32;;;;;;;59.20;26.30;;;;;;;0.26;86.16;100688.63;209990;1302;142020;-68
2022/12/03 19:42:37;;;;;;;69.90;25.50;;;;;;;0.24;86.24;100689.21;209469;1294;218154;-71
2022/12/03 19:47:42;;;;;;;74.60;30.60;;;;;;;0.30;86.53;100688.42;206600;1288;140193;-68
2022/12/03 19:52:46;;;;;;;73.80;31.00;;;;;;;0.32;86.57;100683.32;208442;1287;140293;-66
2022/12/03 19:57:49;;;;;;;67.40;28.90;;;;;;;0.40;86.84;100679.18;210022;1297;140653;-71
2022/12/03 20:02:53;;;;;;;54.30;23.20;;;;;;;0.54;86.62;100672.57;210321;1279;140698;-66
2022/12/03 20:07:58;;;;;;;67.80;31.70;;;;;;;0.64;86.44;100666.83;210179;1294;142265;-67
2022/12/03 20:13:05;;;;;;;67.70;27.70;;;;;;;0.58;85.87;100667.58;208640;1293;141119;-69
2022/12/03 20:18:10;;;;;;;74.30;32.20;;;;;;;0.55;85.78;100666.46;209057;1296;143428;-71
2022/12/03 20:23:15;;;;;;;163.30;41.30;;;;;;;0.51;86.11;100667.07;207618;1282;141241;-70
2022/12/03 20:28:23;;;;;;;163.40;54.40;;;;;;;0.51;86.43;100662.73;210116;1287;141614;-70
2022/12/03 20:33:28;;;;;;;125.60;44.90;;;;;;;0.47;86.27;100669.38;208422;1302;140931;-66
2022/12/03 20:38:33;;;;;;;101.10;41.70;;;;;;;0.48;86.43;100674.67;207626;1283;143507;-69
2022/12/03 20:43:39;;;;;;;115.40;40.90;;;;;;;0.51;86.71;100666.14;210082;1295;140946;-67
2022/12/03 20:48:46;;;;;;;97.40;39.70;;;;;;;0.63;87.03;100660.83;210202;1283;140765;-65
2022/12/03 20:53:52;;;;;;;91.90;42.20;;;;;;;0.76;86.91;100660.83;209465;1302;140856;-68
2022/12/03 20:59:07;;;;;;;91.20;34.50;;;;;;;0.83;86.53;100661.02;210137;1297;141167;-68
2022/12/03 21:04:14;;;;;;;75.70;32.80;;;;;;;0.80;86.29;100657.98;210189;1301;142018;-65
2022/12/03 21:09:20;;;;;;;60.20;29.30;;;;;;;0.87;86.58;100656.91;210125;1293;139901;-66
2022/12/03 21:14:26;;;;;;;68.10;28.00;;;;;;;0.95;86.30;100660.97;210276;1294;140709;-67
2022/12/03 21:19:31;;;;;;;79.00;32.40;;;;;;;0.98;86.16;100660.35;210035;1293;140419;-68
2022/12/03 21:24:36;;;;;;;63.30;28.20;;;;;;;1.05;86.63;100654.94;210057;1296;140377;-70
2022/12/03 21:29:41;;;;;;;71.20;30.80;;;;;;;1.12;86.07;100657.82;210030;1293;141008;-67
2022/12/03 21:34:46;;;;;;;65.40;32.20;;;;;;;1.10;85.95;100658.63;210206;1294;143272;-68
2022/12/03 21:39:49;;;;;;;70.50;31.80;;;;;;;1.12;86.35;100655.13;210209;1294;139808;-68
2022/12/03 21:44:54;;;;;;;75.10;28.40;;;;;;;1.19;86.39;100650.42;210461;1293;140505;-68
2022/12/03 21:49:57;;;;;;;66.70;30.90;;;;;;;1.34;86.38;100648.37;209825;1289;141226;-66
2022/12/03 21:55:01;;;;;;;63.70;32.00;;;;;;;1.42;86.19;100640.95;207962;1295;140630;-63
2022/12/03 22:00:07;;;;;;;72.60;32.30;;;;;;;1.42;86.26;100634.81;210170;1292;141489;-70
2022/12/03 22:05:12;;;;;;;71.10;29.10;;;;;;;1.45;86.35;100637.46;210030;1297;139918;-70
2022/12/03 22:10:17;;;;;;;68.90;30.80;;;;;;;1.55;86.14;100631.54;209988;1294;140412;-69
2022/12/03 22:15:20;;;;;;;74.90;32.10;;;;;;;1.59;86.08;100627.81;210412;1294;140162;-66
2022/12/03 22:20:24;;;;;;;67.70;32.00;;;;;;;1.60;86.18;100632.39;210225;1297;139727;-70
2022/12/03 22:25:29;;;;;;;60.10;28.50;;;;;;;1.64;86.11;100629.56;210076;1297;139724;-64
2022/12/03 22:30:33;;;;;;;72.30;30.10;;;;;;;1.71;85.91;100630.79;209787;1294;140239;-66
2022/12/03 22:35:37;;;;;;;69.70;28.70;;;;;;;1.66;85.62;100627.59;208449;1295;141444;-63
2022/12/03 22:40:41;;;;;;;79.30;31.90;;;;;;;1.57;85.31;100629.80;206961;1294;140039;-66
2022/12/03 22:45:45;;;;;;;59.20;29.40;;;;;;;1.49;85.17;100628.80;207025;1286;141886;-68
2022/12/03 22:50:50;;;;;;;72.30;32.00;;;;;;;1.41;85.57;100627.88;209362;1296;154177;-63
2022/12/03 22:55:56;;;;;;;56.90;26.10;;;;;;;1.39;85.67;100626.88;210127;1293;140340;-66
2022/12/03 23:01:00;;;;;;;63.20;26.40;;;;;;;1.43;85.48;100619.68;210243;1302;246101;-69
2022/12/03 23:06:10;;;;;;;94.50;42.40;;;;;;;1.43;85.63;100628.35;210107;1293;140782;-70
2022/12/03 23:11:15;;;;;;;74.30;30.50;;;;;;;1.37;85.66;100628.66;210248;1295;139742;-65
2022/12/03 23:16:25;;;;;;;61.30;28.80;;;;;;;1.42;85.76;100620.30;210260;1294;141871;-70